Time;durP1;ratioP1;P1;durP2;ratioP2;P2;SDS_P1;SDS_P2;PMS_P1;PMS_P2;Temp;Humidity;BMP_temperature;BMP_pressure;BME280_temperature;BME280_humidity;BME280_pressure;Samples;Min_cycle;Max_cycle;Signal;HPM_P1;HPM_P2
2021/08/09 00:02:01;;;;;;;8.65;7.00;;;;;;;18.64;62.35;100432.63;1782636;80;21076;-68
2021/08/09 00:04:27;;;;;;;8.43;7.58;;;;;;;18.56;62.73;100434.36;1786053;80;20970;-69
2021/08/09 00:06:55;;;;;;;9.00;7.70;;;;;;;18.49;63.09;100432.59;1795889;79;21529;-69
2021/08/09 00:09:25;;;;;;;11.53;7.50;;;;;;;18.44;63.24;100432.51;1783482;80;21022;-70
2021/08/09 00:11:52;;;;;;;7.67;6.62;;;;;;;18.37;63.34;100431.81;1785917;80;20994;-70
2021/08/09 00:14:20;;;;;;;8.40;7.00;;;;;;;18.30;63.21;100436.52;1781452;80;21049;-67
2021/08/09 00:16:47;;;;;;;11.48;6.95;;;;;;;18.36;63.34;100434.20;1775011;80;20987;-69
2021/08/09 00:19:15;;;;;;;10.78;7.47;;;;;;;18.38;63.01;100434.78;1780095;80;21651;-69
2021/08/09 00:21:42;;;;;;;11.18;7.17;;;;;;;18.41;62.67;100431.62;1787212;79;21073;-68
2021/08/09 00:24:09;;;;;;;7.97;6.72;;;;;;;18.50;63.04;100434.78;1780220;80;21049;-70
2021/08/09 00:26:35;;;;;;;;;;;;;;;18.48;63.27;100432.31;1780184;80;21034;-69
2021/08/09 00:29:02;;;;;;;8.65;7.47;;;;;;;18.41;63.46;100430.27;1780190;80;20104;-68
2021/08/09 00:31:28;;;;;;;6.67;5.55;;;;;;;18.28;63.46;100427.30;1783788;80;21037;-68
2021/08/09 00:33:58;;;;;;;6.80;6.10;;;;;;;18.28;63.56;100424.60;1775023;80;21066;-67
2021/08/09 00:36:24;;;;;;;7.30;6.53;;;;;;;18.32;63.49;100421.44;1782563;80;21066;-67
2021/08/09 00:38:53;;;;;;;12.53;6.92;;;;;;;18.09;63.71;100385.35;1776506;80;20999;-68
2021/08/09 00:41:21;;;;;;;8.48;6.83;;;;;;;18.29;63.84;100418.16;1780503;80;21065;-68
2021/08/09 00:43:49;;;;;;;9.65;7.20;;;;;;;18.24;64.02;100412.65;1781242;80;21663;-68
2021/08/09 00:46:17;;;;;;;9.15;8.10;;;;;;;18.22;64.53;100409.38;1780937;80;21021;-72
2021/08/09 00:48:46;;;;;;;7.25;6.65;;;;;;;18.22;64.72;100404.52;1778751;80;21099;-67
2021/08/09 00:51:13;;;;;;;11.97;6.42;;;;;;;18.22;64.45;100408.02;1780176;80;21043;-69
2021/08/09 00:53:42;;;;;;;10.43;7.72;;;;;;;18.23;64.44;100408.83;1687549;83;21585;-72
2021/08/09 00:56:10;;;;;;;9.25;7.45;;;;;;;18.19;64.51;100408.48;1740728;82;21091;-68
2021/08/09 00:58:37;;;;;;;8.63;7.40;;;;;;;18.10;64.54;100407.20;1770473;80;21087;-68
2021/08/09 01:01:05;;;;;;;10.53;8.75;;;;;;;18.02;64.82;100407.03;1746178;81;21006;-69
2021/08/09 01:03:32;;;;;;;9.13;7.80;;;;;;;17.94;65.07;100407.41;1755956;81;21073;-69
2021/08/09 01:05:59;;;;;;;8.55;7.30;;;;;;;17.93;65.28;100411.68;1746809;81;21516;-69
2021/08/09 01:08:40;;;;;;;10.43;7.65;;;;;;;17.97;65.39;100409.64;1807938;79;20958;-68
2021/08/09 01:11:34;;;;;;;8.78;7.87;;;;;;;18.03;65.34;100409.23;1782251;79;21002;-67
2021/08/09 01:14:23;;;;;;;12.73;11.10;;;;;;;18.08;65.24;100407.97;1807233;79;21022;-68
2021/08/09 01:16:51;;;;;;;8.70;7.87;;;;;;;18.05;65.31;100404.41;1808557;79;21536;-68
2021/08/09 01:20:13;;;;;;;8.88;7.87;;;;;;;17.98;65.53;100405.88;1801334;79;20984;-68
2021/08/09 01:22:57;;;;;;;10.65;7.15;;;;;;;17.96;65.95;100401.25;1802293;79;21031;-69
2021/08/09 01:25:49;;;;;;;7.55;6.90;;;;;;;17.95;65.96;100402.83;1785505;79;21068;-69
2021/08/09 01:28:19;;;;;;;10.95;7.83;;;;;;;17.94;66.05;100399.85;1774073;80;20992;-69
2021/08/09 01:30:48;;;;;;;8.85;7.92;;;;;;;17.92;65.91;100400.62;1784758;79;20990;-69
2021/08/09 01:33:17;;;;;;;8.90;7.62;;;;;;;17.88;66.31;100397.03;1785087;80;21002;-74
2021/08/09 01:35:46;;;;;;;11.83;8.25;;;;;;;17.83;66.39;100402.27;1743974;80;21163;-69
2021/08/09 01:38:16;;;;;;;8.90;7.97;;;;;;;17.76;66.63;100399.40;1742045;80;21024;-68
2021/08/09 01:40:44;;;;;;;16.30;8.40;;;;;;;17.73;66.97;100399.89;1746405;80;21045;-71
2021/08/09 01:43:11;;;;;;;9.13;7.35;;;;;;;17.70;67.08;100397.11;1731807;80;21018;-74
2021/08/09 01:45:39;;;;;;;10.60;7.90;;;;;;;17.70;67.11;100408.70;1728815;80;21022;-70
2021/08/09 01:48:09;;;;;;;11.18;7.87;;;;;;;17.74;66.94;100402.86;1751904;80;20996;-70
2021/08/09 01:50:42;;;;;;;10.15;8.73;;;;;;;17.72;66.88;100400.39;1740292;81;21021;-70
2021/08/09 01:53:12;;;;;;;11.88;9.65;;;;;;;17.66;66.65;100391.37;1750427;81;21097;-69
2021/08/09 01:55:40;;;;;;;10.45;8.40;;;;;;;17.69;67.09;100396.30;1729718;80;21129;-69
2021/08/09 01:58:09;;;;;;;9.23;8.28;;;;;;;17.70;67.43;100401.16;1743180;81;21025;-68
2021/08/09 02:00:36;;;;;;;9.30;8.40;;;;;;;17.71;67.42;100398.23;1733229;81;21050;-67
2021/08/09 02:03:04;;;;;;;9.80;8.80;;;;;;;17.75;66.89;100403.98;1750371;80;21066;-67
2021/08/09 02:05:32;;;;;;;10.60;9.55;;;;;;;17.75;66.90;100404.52;1750342;80;21026;-68
2021/08/09 02:08:01;;;;;;;19.07;10.10;;;;;;;17.69;66.93;100405.73;1750105;80;21002;-72
2021/08/09 02:10:30;;;;;;;8.75;7.95;;;;;;;17.65;67.01;100405.91;1750750;80;21096;-71
2021/08/09 02:13:28;;;;;;;14.73;9.08;;;;;;;17.68;67.10;100405.42;1759222;79;22337;-68
2021/08/09 02:16:04;;;;;;;11.12;9.40;;;;;;;17.73;67.08;100406.63;1748715;82;20978;-69
2021/08/09 02:18:34;;;;;;;;;;;;;;;17.75;66.93;100407.21;1752741;82;21033;-69
2021/08/09 02:21:09;;;;;;;13.05;9.58;;;;;;;17.78;66.78;100405.38;1750453;80;20127;-67
2021/08/09 02:23:49;;;;;;;9.95;8.55;;;;;;;17.71;66.66;100402.81;1750829;81;20965;-70
2021/08/09 02:26:29;;;;;;;13.40;10.28;;;;;;;17.65;66.81;100403.22;1729703;82;21007;-69
2021/08/09 02:29:05;;;;;;;10.20;9.18;;;;;;;17.58;66.96;100408.43;1745695;81;21091;-67
2021/08/09 02:31:34;;;;;;;11.45;9.83;;;;;;;17.55;67.68;100407.53;1753212;80;21037;-69
2021/08/09 02:34:02;;;;;;;9.43;8.33;;;;;;;17.59;67.66;100409.52;1739545;82;21607;-67
2021/08/09 02:36:29;;;;;;;10.08;8.93;;;;;;;17.67;67.33;100406.50;1715233;82;21462;-67
2021/08/09 02:38:59;;;;;;;11.50;8.25;;;;;;;17.67;67.16;100409.19;1704325;83;21044;-68
2021/08/09 02:41:26;;;;;;;13.45;9.10;;;;;;;17.62;67.23;100414.45;1720201;82;21129;-69
2021/08/09 02:43:53;;;;;;;10.35;9.25;;;;;;;17.55;67.48;100416.44;1715103;82;21010;-69
2021/08/09 02:46:21;;;;;;;10.40;9.40;;;;;;;17.50;67.82;100419.84;1689735;83;21054;-68
2021/08/09 02:48:49;;;;;;;9.40;8.50;;;;;;;17.47;67.89;100415.44;1699296;84;21096;-73
2021/08/09 02:51:19;;;;;;;12.73;9.93;;;;;;;17.50;67.90;100420.37;1754204;82;21042;-67
2021/08/09 02:53:50;;;;;;;11.70;9.10;;;;;;;17.53;67.98;100418.55;1719883;83;20983;-68
2021/08/09 02:56:22;;;;;;;9.50;8.45;;;;;;;17.55;67.74;100416.44;1708908;84;20969;-70
2021/08/09 02:58:52;;;;;;;10.20;8.85;;;;;;;17.53;67.73;100425.28;1709607;84;21068;-69
2021/08/09 03:01:19;;;;;;;15.85;10.95;;;;;;;17.52;67.95;100423.66;1708816;83;21032;-69
2021/08/09 03:03:49;;;;;;;12.60;10.30;;;;;;;17.68;67.91;100422.13;1716163;83;20984;-72
2021/08/09 03:06:17;;;;;;;10.78;9.73;;;;;;;18.00;66.86;100417.24;1718033;83;21524;-68
2021/08/09 03:08:45;;;;;;;12.33;10.63;;;;;;;18.41;66.16;100418.67;1705816;84;20966;-70
2021/08/09 03:11:15;;;;;;;14.75;10.63;;;;;;;18.83;64.96;100431.41;1715723;82;20965;-69
2021/08/09 03:13:48;;;;;;;16.77;10.88;;;;;;;19.25;63.54;100430.30;1747295;82;20942;-69
2021/08/09 03:16:17;;;;;;;13.88;10.43;;;;;;;19.70;61.96;100441.56;1770112;79;21090;-69
2021/08/09 03:18:43;;;;;;;13.95;9.48;;;;;;;20.16;60.12;100436.87;1783542;79;21536;-70
2021/08/09 03:21:10;;;;;;;13.30;8.95;;;;;;;20.58;58.35;100432.26;1784009;79;20926;-69
2021/08/09 03:23:37;;;;;;;12.07;9.28;;;;;;;20.95;57.20;100429.47;1749233;82;21364;-71
2021/08/09 03:26:04;;;;;;;13.55;9.53;;;;;;;21.33;56.58;100423.59;1788336;79;20995;-69
2021/08/09 03:28:33;;;;;;;10.90;9.43;;;;;;;21.69;55.72;100423.36;1749713;80;21120;-68
2021/08/09 03:31:00;;;;;;;13.83;8.38;;;;;;;22.05;54.76;100425.50;1781221;80;20998;-69
2021/08/09 03:33:27;;;;;;;10.75;9.65;;;;;;;22.37;53.73;100430.04;1787472;78;20994;-68
2021/08/09 03:35:53;;;;;;;10.15;9.15;;;;;;;22.66;53.18;100426.34;1800654;79;21694;-69
2021/08/09 03:38:20;;;;;;;16.55;9.58;;;;;;;22.93;52.55;100435.67;1802622;78;21021;-68
2021/08/09 03:41:05;;;;;;;9.88;8.70;;;;;;;23.21;51.28;100426.78;1800496;78;21103;-69
2021/08/09 03:43:32;;;;;;;10.32;9.18;;;;;;;23.52;50.09;100427.59;1802517;78;21175;-70
2021/08/09 03:46:00;;;;;;;13.15;8.25;;;;;;;23.78;49.61;100428.95;1797038;78;20998;-71
2021/08/09 03:48:26;;;;;;;12.37;8.48;;;;;;;23.98;49.26;100440.36;1783635;78;21571;-70
2021/08/09 03:50:53;;;;;;;12.28;9.45;;;;;;;24.20;49.09;100429.95;1801008;78;21038;-69
2021/08/09 03:53:19;;;;;;;11.08;8.10;;;;;;;24.44;48.62;100426.06;1782685;78;21049;-66
2021/08/09 03:55:46;;;;;;;11.20;8.90;;;;;;;24.69;48.15;100429.79;1791444;78;21054;-67
2021/08/09 03:58:13;;;;;;;15.20;9.60;;;;;;;24.96;47.21;100432.63;1794001;78;21033;-67
2021/08/09 04:00:42;;;;;;;13.13;9.53;;;;;;;25.27;46.32;100433.28;1771661;79;21054;-67
2021/08/09 04:03:08;;;;;;;13.98;9.65;;;;;;;25.64;45.25;100425.88;1780906;80;21123;-67
2021/08/09 04:05:37;;;;;;;8.15;7.45;;;;;;;25.94;44.17;100421.82;1780194;80;21496;-69
2021/08/09 04:08:04;;;;;;;9.95;8.53;;;;;;;25.93;43.26;100421.55;1776523;80;21045;-67
2021/08/09 04:10:31;;;;;;;9.30;7.72;;;;;;;25.86;43.31;100423.77;1759244;80;21046;-67
2021/08/09 04:12:58;;;;;;;9.05;7.92;;;;;;;25.78;43.61;100427.37;1782034;79;21088;-66
2021/08/09 04:15:27;;;;;;;8.45;7.65;;;;;;;25.96;43.67;100423.70;1764766;79;21523;-66
2021/08/09 04:17:54;;;;;;;12.45;8.23;;;;;;;26.32;42.91;100434.23;1787534;79;21053;-67
2021/08/09 04:20:20;;;;;;;9.45;7.75;;;;;;;26.58;42.41;100430.63;1793565;79;20970;-67
2021/08/09 04:22:47;;;;;;;14.40;7.45;;;;;;;26.80;41.64;100427.34;1785470;79;21564;-66
2021/08/09 04:28:15;;;;;;;10.70;8.08;;;;;;;27.28;41.28;100421.73;1788567;78;22763;-67
2021/08/09 04:30:42;;;;;;;12.25;7.87;;;;;;;27.36;41.23;100418.87;1759427;80;21527;-67
2021/08/09 04:33:08;;;;;;;12.07;8.23;;;;;;;27.56;40.78;100417.72;1752242;80;21126;-66
2021/08/09 04:35:35;;;;;;;8.20;7.37;;;;;;;27.73;40.61;100422.06;1642097;86;21056;-67
2021/08/09 04:38:03;;;;;;;9.95;8.05;;;;;;;27.80;40.40;100424.95;1629536;85;21588;-69
2021/08/09 04:40:30;;;;;;;14.87;8.33;;;;;;;27.70;40.73;100433.61;1638303;85;21019;-68
2021/08/09 04:42:59;;;;;;;9.43;8.50;;;;;;;27.80;41.23;100423.58;1637712;85;21125;-67
2021/08/09 04:45:26;;;;;;;10.38;9.38;;;;;;;27.89;41.62;100418.50;1642813;85;21079;-74
2021/08/09 04:47:53;;;;;;;9.35;7.78;;;;;;;27.95;41.33;100411.83;1646762;85;21049;-76
2021/08/09 04:50:20;;;;;;;9.65;6.90;;;;;;;28.08;41.19;100418.97;1652165;85;21105;-77
2021/08/09 04:52:46;;;;;;;10.13;7.67;;;;;;;28.24;40.87;100421.67;1647805;85;21073;-76
2021/08/09 04:55:16;;;;;;;9.98;6.55;;;;;;;28.40;40.50;100423.53;1661434;84;21041;-76
2021/08/09 04:57:43;;;;;;;8.35;7.55;;;;;;;28.58;40.35;100422.39;1608865;87;21125;-75
2021/08/09 05:00:14;;;;;;;9.70;7.47;;;;;;;28.81;39.80;100432.28;1614570;85;21041;-69
2021/08/09 05:02:41;;;;;;;8.45;6.80;;;;;;;29.01;38.94;100435.67;1641502;85;21563;-70
2021/08/09 05:05:09;;;;;;;12.45;7.15;;;;;;;29.08;38.80;100438.27;1641955;85;21089;-69
2021/08/09 05:07:37;;;;;;;10.23;7.53;;;;;;;29.15;38.40;100446.08;1646743;85;21641;-68
2021/08/09 05:10:06;;;;;;;9.63;6.25;;;;;;;29.25;38.22;100443.11;1654526;85;21028;-69
2021/08/09 05:12:33;;;;;;;10.40;6.40;;;;;;;29.35;37.68;100440.67;1651436;84;21535;-69
2021/08/09 05:15:01;;;;;;;6.00;5.42;;;;;;;29.11;38.03;100447.80;1654378;84;21177;-69
2021/08/09 05:17:28;;;;;;;6.55;5.45;;;;;;;28.59;38.39;100445.37;1656543;84;21037;-69
2021/08/09 05:19:54;;;;;;;6.65;5.58;;;;;;;28.49;38.86;100442.25;1661989;84;21558;-60
2021/08/09 05:22:20;;;;;;;5.03;4.62;;;;;;;28.72;38.21;100444.53;1661773;84;21081;-61
2021/08/09 05:24:48;;;;;;;5.50;3.47;;;;;;;29.09;37.35;100446.73;1604915;87;21059;-61
2021/08/09 05:27:14;;;;;;;4.08;3.67;;;;;;;29.45;36.64;100449.20;1598620;87;21112;-60
2021/08/09 05:29:40;;;;;;;4.85;3.52;;;;;;;29.88;35.59;100443.99;1640459;86;21032;-60
2021/08/09 05:32:09;;;;;;;4.35;3.92;;;;;;;30.30;34.47;100436.00;1620017;86;21080;-62
2021/08/09 05:34:37;;;;;;;5.28;4.03;;;;;;;30.52;33.90;100432.38;1655312;84;21044;-61
2021/08/09 05:37:03;;;;;;;3.35;3.05;;;;;;;30.56;33.82;100443.77;1643697;85;21033;-61
2021/08/09 05:39:30;;;;;;;3.92;2.98;;;;;;;30.60;33.47;100445.32;1573686;87;21020;-62
2021/08/09 05:41:57;;;;;;;1.80;1.70;;;;;;;30.67;33.39;100442.91;1620571;86;21148;-64
2021/08/09 05:44:30;;;;;;;2.35;2.10;;;;;;;30.71;32.83;100443.87;1614703;86;21017;-62
2021/08/09 05:46:57;;;;;;;6.65;2.90;;;;;;;30.80;32.97;100445.28;1593744;88;21102;-65
2021/08/09 05:49:23;;;;;;;3.92;2.52;;;;;;;30.86;33.04;100432.40;1598332;88;21501;-65
2021/08/09 05:51:51;;;;;;;2.02;1.90;;;;;;;30.93;32.77;100427.00;1596267;88;20977;-65
2021/08/09 05:54:19;;;;;;;3.75;1.80;;;;;;;30.82;33.03;100432.00;1596172;88;21090;-65
2021/08/09 05:56:45;;;;;;;4.85;1.80;;;;;;;30.40;33.33;100435.17;1591821;88;20997;-65
2021/08/09 05:59:12;;;;;;;2.87;2.20;;;;;;;30.03;34.24;100440.02;1595062;88;21045;-65
2021/08/09 06:01:40;;;;;;;2.37;2.20;;;;;;;29.83;34.80;100440.00;1588811;88;21528;-65
2021/08/09 06:04:07;;;;;;;1.90;1.80;;;;;;;29.80;35.27;100443.94;1584509;88;21123;-65
2021/08/09 06:06:33;;;;;;;1.62;1.40;;;;;;;29.84;35.42;100443.01;1594679;88;21013;-65
2021/08/09 06:09:04;;;;;;;2.15;1.10;;;;;;;29.67;35.49;100441.52;1592739;88;21089;-65
2021/08/09 06:11:30;;;;;;;1.52;0.90;;;;;;;29.40;35.66;100446.01;1592282;88;21029;-65
2021/08/09 06:13:58;;;;;;;2.40;0.78;;;;;;;29.12;35.97;100442.54;1589722;88;21066;-65
2021/08/09 06:16:25;;;;;;;1.77;0.78;;;;;;;29.04;36.11;100449.58;1597248;88;20961;-65
2021/08/09 06:18:54;;;;;;;0.57;0.57;;;;;;;29.07;36.43;100442.11;1598402;88;21424;-65
2021/08/09 06:21:19;;;;;;;2.55;0.88;;;;;;;29.21;36.22;100440.70;1612308;88;21002;-65
2021/08/09 06:23:47;;;;;;;0.78;0.60;;;;;;;29.24;36.07;100448.33;1617605;88;21019;-65
2021/08/09 06:26:16;;;;;;;2.25;0.62;;;;;;;29.24;36.60;100455.77;1598548;88;21153;-65
2021/08/09 06:28:43;;;;;;;8.63;0.85;;;;;;;29.49;35.81;100451.58;1608937;88;21565;-65
2021/08/09 06:31:10;;;;;;;4.37;0.70;;;;;;;29.72;35.84;100451.55;1592264;88;21025;-65
2021/08/09 06:33:37;;;;;;;7.05;1.30;;;;;;;29.91;35.41;100441.73;1605277;88;21140;-65
2021/08/09 06:36:04;;;;;;;2.58;0.98;;;;;;;29.99;35.24;100452.78;1630779;86;21093;-65
2021/08/09 06:38:30;;;;;;;4.05;0.75;;;;;;;30.12;35.04;100448.86;1627177;86;21045;-65
2021/08/09 06:40:56;;;;;;;0.37;0.23;;;;;;;30.13;34.96;100451.29;1618834;86;21093;-65
2021/08/09 06:43:23;;;;;;;0.72;0.40;;;;;;;30.02;35.35;100455.45;1626245;86;21133;-65
2021/08/09 06:45:53;;;;;;;1.45;0.75;;;;;;;29.92;35.34;100452.98;1618909;86;21017;-65
2021/08/09 06:48:21;;;;;;;0.28;0.28;;;;;;;29.98;35.60;100455.27;1606956;86;21053;-65
2021/08/09 06:50:48;;;;;;;0.80;0.50;;;;;;;30.12;35.27;100455.19;1622961;86;21070;-66
2021/08/09 06:53:14;;;;;;;2.85;0.57;;;;;;;30.14;35.22;100464.46;1636656;86;21067;-65
2021/08/09 06:55:42;;;;;;;0.50;0.30;;;;;;;30.28;34.80;100457.73;1601222;88;21567;-65
2021/08/09 06:58:08;;;;;;;1.15;0.50;;;;;;;30.44;34.84;100458.15;1629808;86;20998;-65
2021/08/09 07:00:35;;;;;;;1.55;0.40;;;;;;;30.56;34.26;100455.34;1621463;86;21097;-65
2021/08/09 07:03:08;;;;;;;2.95;0.57;;;;;;;30.43;33.57;100450.22;1633184;86;20995;-65
2021/08/09 07:05:46;;;;;;;1.55;0.37;;;;;;;30.30;33.92;100451.92;1629598;86;21019;-65
2021/08/09 07:08:15;;;;;;;2.72;0.60;;;;;;;30.23;33.90;100446.90;1641433;86;21066;-65
2021/08/09 07:10:44;;;;;;;0.53;0.53;;;;;;;30.14;34.35;100446.59;1630564;86;21015;-65
2021/08/09 07:13:11;;;;;;;2.22;0.42;;;;;;;30.16;33.95;100449.84;1637765;86;21043;-64
2021/08/09 07:15:41;;;;;;;1.10;0.68;;;;;;;30.02;34.03;100448.00;1644760;86;20999;-65
2021/08/09 07:18:07;;;;;;;0.88;0.55;;;;;;;29.89;34.39;100453.03;1636688;86;21503;-65
2021/08/09 07:20:34;;;;;;;2.25;0.60;;;;;;;29.86;34.24;100447.63;1635074;86;20999;-65
2021/08/09 07:23:01;;;;;;;0.90;0.40;;;;;;;29.78;34.30;100447.56;1648218;85;21097;-65
2021/08/09 07:25:29;;;;;;;0.78;0.33;;;;;;;29.64;34.08;100448.44;1640824;86;21155;-65
2021/08/09 07:27:55;;;;;;;0.70;0.37;;;;;;;29.69;34.47;100451.05;1648565;86;21019;-65
2021/08/09 07:30:23;;;;;;;3.33;0.98;;;;;;;29.68;34.67;100443.13;1654715;85;21046;-65
2021/08/09 07:32:52;;;;;;;1.45;0.60;;;;;;;29.45;35.29;100450.58;1642252;85;21039;-66
2021/08/09 07:35:19;;;;;;;1.75;0.50;;;;;;;29.08;36.20;100457.47;1637893;86;21086;-67
2021/08/09 07:37:45;;;;;;;1.35;0.55;;;;;;;28.88;36.97;100449.70;1648081;85;21042;-67
2021/08/09 07:40:13;;;;;;;1.40;0.93;;;;;;;28.81;37.13;100445.19;1635347;85;21063;-66
2021/08/09 07:42:40;;;;;;;3.05;0.80;;;;;;;28.78;37.07;100439.74;1631698;87;21146;-65
2021/08/09 07:45:09;;;;;;;0.40;0.28;;;;;;;28.70;36.81;100433.63;1625979;85;21561;-65
2021/08/09 07:47:35;;;;;;;5.47;0.50;;;;;;;28.58;35.94;100440.22;1636420;86;21071;-65
2021/08/09 07:50:05;;;;;;;0.40;0.20;;;;;;;28.61;35.79;100448.61;1624308;87;21540;-66
2021/08/09 07:52:39;;;;;;;2.83;0.30;;;;;;;28.69;36.61;100442.42;1623796;87;21126;-66
2021/08/09 07:55:07;;;;;;;1.12;0.45;;;;;;;28.77;36.64;100444.99;1627674;86;21553;-65
2021/08/09 07:57:34;;;;;;;3.80;0.53;;;;;;;28.75;36.16;100444.49;1627321;86;21157;-60
2021/08/09 08:00:00;;;;;;;4.70;0.75;;;;;;;28.63;36.57;100448.31;1621254;86;21113;-61
2021/08/09 08:02:26;;;;;;;0.93;0.40;;;;;;;28.57;36.79;100444.06;1625856;86;21272;-60
2021/08/09 08:04:53;;;;;;;0.95;0.30;;;;;;;28.57;36.85;100435.27;1625166;87;21090;-60
2021/08/09 08:07:19;;;;;;;0.50;0.20;;;;;;;28.54;36.57;100434.53;1625702;86;21015;-61
2021/08/09 08:09:48;;;;;;;3.42;0.78;;;;;;;28.54;36.79;100435.33;1622971;86;21129;-60
2021/08/09 08:12:16;;;;;;;2.75;0.40;;;;;;;28.58;36.90;100427.88;1649999;85;21167;-62
2021/08/09 08:14:43;;;;;;;3.00;0.40;;;;;;;28.61;36.55;100435.47;1647562;85;21040;-60
2021/08/09 08:17:11;;;;;;;1.32;0.62;;;;;;;28.62;36.60;100427.51;1657277;85;21009;-62
2021/08/09 08:19:38;;;;;;;1.85;0.25;;;;;;;28.61;36.60;100431.36;1642003;85;21055;-61
2021/08/09 08:22:06;;;;;;;0.40;0.37;;;;;;;28.64;36.62;100425.27;1647080;85;21025;-62
2021/08/09 08:24:34;;;;;;;0.37;0.33;;;;;;;28.69;37.06;100436.13;1641790;85;21012;-61
2021/08/09 08:27:00;;;;;;;2.20;0.40;;;;;;;28.76;36.71;100431.58;1620669;87;21114;-62
2021/08/09 08:29:27;;;;;;;1.55;0.68;;;;;;;28.80;36.47;100430.67;1636462;85;22144;-61
2021/08/09 08:31:53;;;;;;;0.75;0.55;;;;;;;28.82;35.67;100438.03;1645218;85;21472;-62
2021/08/09 08:34:20;;;;;;;3.90;0.53;;;;;;;28.76;36.29;100437.06;1626983;85;21155;-61
2021/08/09 08:36:50;;;;;;;1.95;0.40;;;;;;;28.77;36.72;100435.39;1648442;85;21554;-62
2021/08/09 08:39:16;;;;;;;1.90;1.02;;;;;;;28.79;36.16;100432.34;1640774;85;21087;-60
2021/08/09 08:41:45;;;;;;;0.57;0.40;;;;;;;28.79;36.23;100441.38;1634223;85;21075;-61
2021/08/09 08:44:20;;;;;;;1.67;0.62;;;;;;;28.76;35.74;100443.92;1648936;85;21055;-63
2021/08/09 08:46:48;;;;;;;5.92;0.50;;;;;;;28.72;36.18;100447.27;1661624;84;21064;-62
2021/08/09 08:49:16;;;;;;;1.80;0.60;;;;;;;28.75;36.30;100447.23;1668687;84;21071;-63
2021/08/09 08:51:48;;;;;;;1.85;0.60;;;;;;;28.81;35.72;100447.37;1665775;84;21096;-62
2021/08/09 08:54:16;;;;;;;0.98;0.72;;;;;;;28.83;35.41;100446.50;1663342;84;21012;-62
2021/08/09 08:56:45;;;;;;;1.37;0.50;;;;;;;28.77;35.61;100449.11;1672215;84;21340;-63
2021/08/09 08:59:14;;;;;;;2.35;0.75;;;;;;;28.72;35.59;100445.09;1675951;84;21060;-61
2021/08/09 09:01:45;;;;;;;1.65;0.35;;;;;;;28.71;35.43;100441.55;1699854;82;21555;-61
2021/08/09 09:04:31;;;;;;;0.40;0.40;;;;;;;28.70;35.70;100439.11;1715815;82;21024;-63
2021/08/09 09:07:04;;;;;;;0.62;0.40;;;;;;;28.69;36.02;100447.10;1718471;82;21064;-61
2021/08/09 09:09:38;;;;;;;0.82;0.70;;;;;;;28.75;35.95;100447.23;1706759;82;21692;-61
2021/08/09 09:12:17;;;;;;;0.70;0.40;;;;;;;28.80;36.05;100439.44;1710734;82;21539;-61
2021/08/09 09:14:51;;;;;;;0.45;0.37;;;;;;;28.85;35.96;100436.02;1707945;82;21032;-61
2021/08/09 09:17:23;;;;;;;1.45;0.37;;;;;;;28.91;35.86;100444.95;1694116;82;21127;-62
2021/08/09 09:19:49;;;;;;;2.70;0.40;;;;;;;28.92;35.39;100447.39;1698598;82;21546;-62
2021/08/09 09:22:23;;;;;;;0.78;0.30;;;;;;;28.86;34.42;100453.31;1704391;82;21119;-61
2021/08/09 09:24:55;;;;;;;1.05;0.53;;;;;;;28.81;34.71;100451.48;1706564;82;21532;-62
2021/08/09 09:27:34;;;;;;;0.95;0.57;;;;;;;28.81;34.55;100451.48;1695701;82;21063;-60
2021/08/09 09:30:20;;;;;;;2.95;0.75;;;;;;;28.80;34.32;100448.50;1701730;82;21084;-62
2021/08/09 09:33:03;;;;;;;0.35;0.35;;;;;;;28.77;34.89;100453.22;1695577;82;21032;-62
2021/08/09 09:35:31;;;;;;;1.00;0.60;;;;;;;28.72;35.73;100452.76;1706498;82;20999;-62
2021/08/09 09:37:57;;;;;;;2.15;0.85;;;;;;;28.76;36.00;100459.81;1686120;83;20988;-61
2021/08/09 09:40:23;;;;;;;1.65;0.40;;;;;;;28.81;35.79;100461.08;1713136;82;21028;-61
2021/08/09 09:42:50;;;;;;;0.80;0.72;;;;;;;28.83;35.94;100456.09;1705308;82;21096;-62
2021/08/09 09:45:27;;;;;;;2.42;0.72;;;;;;;28.86;36.02;100454.12;1685099;82;21003;-63
2021/08/09 09:48:07;;;;;;;0.53;0.30;;;;;;;28.91;35.94;100455.38;1654905;84;21575;-61
2021/08/09 09:50:41;;;;;;;1.17;0.60;;;;;;;28.95;35.87;100461.61;1644223;86;20986;-64
2021/08/09 09:53:22;;;;;;;2.47;0.82;;;;;;;28.93;35.72;100452.30;1658104;84;21098;-63
2021/08/09 09:55:53;;;;;;;0.62;0.60;;;;;;;28.98;35.94;100446.71;1660463;84;21056;-62
2021/08/09 09:58:20;;;;;;;3.27;0.37;;;;;;;29.06;35.74;100440.47;1702137;82;21056;-64
2021/08/09 10:00:48;;;;;;;2.17;0.53;;;;;;;29.09;35.00;100437.69;1695241;82;21565;-63
2021/08/09 10:03:16;;;;;;;2.47;0.60;;;;;;;29.10;34.93;100432.44;1700597;82;22144;-60
2021/08/09 10:05:45;;;;;;;0.70;0.70;;;;;;;29.06;35.03;100424.02;1692752;82;21630;-63
2021/08/09 10:08:18;;;;;;;2.72;0.50;;;;;;;29.07;35.09;100430.33;1684455;82;21519;-66
2021/08/09 10:10:51;;;;;;;6.33;0.60;;;;;;;29.07;34.88;100437.19;1689819;82;21052;-61
2021/08/09 10:13:23;;;;;;;0.50;0.50;;;;;;;29.05;34.72;100444.92;1692124;82;21020;-61
2021/08/09 10:15:54;;;;;;;0.42;0.42;;;;;;;29.02;34.65;100446.91;1705052;82;20997;-61
2021/08/09 10:18:26;;;;;;;1.30;0.82;;;;;;;28.99;34.96;100443.41;1662537;84;21049;-60
2021/08/09 10:20:55;;;;;;;0.72;0.53;;;;;;;28.98;34.74;100441.80;1646996;85;21077;-61
2021/08/09 10:23:44;;;;;;;1.07;1.07;;;;;;;28.96;34.40;100433.06;1654156;84;21052;-66
2021/08/09 10:26:30;;;;;;;2.75;1.02;;;;;;;28.96;34.82;100433.06;1663781;84;21072;-66
2021/08/09 10:29:05;;;;;;;0.50;0.50;;;;;;;28.95;34.67;100429.48;1675774;84;21546;-65
2021/08/09 10:31:41;;;;;;;1.12;0.50;;;;;;;29.03;34.74;100430.71;1663821;84;21055;-65
2021/08/09 10:34:12;;;;;;;1.92;0.40;;;;;;;29.13;34.62;100441.46;1667528;84;20988;-65
2021/08/09 10:37:10;;;;;;;4.45;0.42;;;;;;;29.20;34.22;100428.70;1660570;84;21023;-65
2021/08/09 10:39:59;;;;;;;1.47;0.45;;;;;;;29.25;33.75;100419.77;1668302;83;20985;-65
2021/08/09 10:42:40;;;;;;;0.98;0.57;;;;;;;29.25;32.97;100411.54;1676297;84;21532;-65
2021/08/09 10:45:11;;;;;;;1.50;0.30;;;;;;;29.22;33.01;100414.90;1660452;84;21572;-65
2021/08/09 10:47:57;;;;;;;2.17;0.30;;;;;;;29.25;31.94;100418.94;1656238;84;21020;-65
2021/08/09 10:50:39;;;;;;;4.03;0.40;;;;;;;29.25;31.28;100416.20;1661331;85;20997;-65
2021/08/09 10:53:04;;;;;;;0.30;0.30;;;;;;;29.29;31.22;100404.30;1660887;84;21549;-65
2021/08/09 10:55:35;;;;;;;1.67;0.25;;;;;;;29.40;29.97;100405.40;1656243;85;21012;-65
2021/08/09 10:58:05;;;;;;;1.87;0.35;;;;;;;29.47;29.60;100407.95;1660396;84;21119;-64
2021/08/09 11:00:45;;;;;;;0.40;0.40;;;;;;;29.49;29.98;100404.32;1671377;84;21112;-64
2021/08/09 11:03:19;;;;;;;1.50;0.20;;;;;;;29.46;30.52;100409.09;1672535;84;21039;-64
2021/08/09 11:05:47;;;;;;;1.30;0.80;;;;;;;29.36;30.09;100405.21;1669712;84;21011;-65
2021/08/09 11:08:25;;;;;;;0.40;0.30;;;;;;;29.28;30.48;100401.29;1661550;84;21050;-64
2021/08/09 11:11:05;;;;;;;0.60;0.47;;;;;;;29.26;30.45;100403.53;1667198;84;21060;-64
2021/08/09 11:13:45;;;;;;;;;;;;;;;29.31;30.63;100404.79;1680819;84;20970;-64
2021/08/09 11:16:28;;;;;;;1.00;0.80;;;;;;;29.39;30.54;100396.93;1668008;84;20114;-64
2021/08/09 11:18:58;;;;;;;2.65;0.72;;;;;;;29.33;30.13;100392.13;1670825;84;21027;-64
2021/08/09 11:21:31;;;;;;;0.40;0.40;;;;;;;29.28;30.46;100376.58;1676747;84;21028;-65
2021/08/09 11:23:57;;;;;;;0.93;0.33;;;;;;;29.27;30.85;100361.80;1667045;84;22034;-65
2021/08/09 11:26:28;;;;;;;0.85;0.30;;;;;;;29.33;29.92;100365.22;1657554;85;21661;-64
2021/08/09 11:29:04;;;;;;;1.45;0.53;;;;;;;29.39;29.12;100372.22;1639598;85;21090;-65
2021/08/09 11:31:46;;;;;;;5.87;0.25;;;;;;;29.46;29.02;100368.44;1630767;86;21038;-64
2021/08/09 11:34:13;;;;;;;0.82;0.23;;;;;;;29.55;28.38;100367.92;1663047;83;21076;-64
2021/08/09 11:36:41;;;;;;;0.65;0.20;;;;;;;29.60;28.67;100365.63;1679596;83;21072;-65
2021/08/09 11:39:08;;;;;;;3.27;0.40;;;;;;;29.60;29.08;100360.13;1692350;83;21457;-64
2021/08/09 11:41:36;;;;;;;0.50;0.30;;;;;;;29.57;29.35;100356.06;1687852;83;21567;-65